sensor_id;sensor_type;location;lat;lon;timestamp;P1;durP1;ratioP1;P2;durP2;ratioP2
16531;SDS011;66872;63.142;14.482;2023-05-17T00:01:32;1.30;;;1.20;;
16531;SDS011;66872;63.142;14.482;2023-05-17T00:03:57;1.13;;;1.00;;
16531;SDS011;66872;63.142;14.482;2023-05-17T00:06:23;1.93;;;1.40;;
16531;SDS011;66872;63.142;14.482;2023-05-17T00:08:49;1.20;;;1.10;;
16531;SDS011;66872;63.142;14.482;2023-05-17T00:11:14;1.27;;;1.10;;
16531;SDS011;66872;63.142;14.482;2023-05-17T00:13:40;1.20;;;1.10;;
16531;SDS011;66872;63.142;14.482;2023-05-17T00:16:06;1.90;;;1.27;;
16531;SDS011;66872;63.142;14.482;2023-05-17T00:18:32;1.20;;;1.10;;
16531;SDS011;66872;63.142;14.482;2023-05-17T00:20:58;1.23;;;1.10;;
16531;SDS011;66872;63.142;14.482;2023-05-17T00:23:24;1.17;;;1.07;;
16531;SDS011;66872;63.142;14.482;2023-05-17T00:25:49;1.20;;;1.00;;
16531;SDS011;66872;63.142;14.482;2023-05-17T00:28:15;1.30;;;1.17;;
16531;SDS011;66872;63.142;14.482;2023-05-17T00:30:41;1.67;;;1.20;;
16531;SDS011;66872;63.142;14.482;2023-05-17T00:33:06;1.30;;;1.20;;
16531;SDS011;66872;63.142;14.482;2023-05-17T00:35:32;1.20;;;1.03;;
16531;SDS011;66872;63.142;14.482;2023-05-17T00:37:58;1.17;;;1.07;;
16531;SDS011;66872;63.142;14.482;2023-05-17T00:40:23;1.80;;;1.10;;
16531;SDS011;66872;63.142;14.482;2023-05-17T00:42:49;1.43;;;1.30;;
16531;SDS011;66872;63.142;14.482;2023-05-17T00:45:15;1.30;;;1.20;;
16531;SDS011;66872;63.142;14.482;2023-05-17T00:47:41;1.27;;;1.17;;
16531;SDS011;66872;63.142;14.482;2023-05-17T00:50:07;1.50;;;1.13;;
16531;SDS011;66872;63.142;14.482;2023-05-17T00:52:33;1.20;;;1.10;;
16531;SDS011;66872;63.142;14.482;2023-05-17T00:55:00;1.60;;;1.20;;
16531;SDS011;66872;63.142;14.482;2023-05-17T00:57:26;1.30;;;1.20;;
16531;SDS011;66872;63.142;14.482;2023-05-17T00:59:53;1.50;;;1.20;;
16531;SDS011;66872;63.142;14.482;2023-05-17T01:02:20;1.17;;;1.00;;
16531;SDS011;66872;63.142;14.482;2023-05-17T01:04:46;1.07;;;0.97;;
16531;SDS011;66872;63.142;14.482;2023-05-17T01:07:13;1.43;;;1.20;;
16531;SDS011;66872;63.142;14.482;2023-05-17T01:09:39;1.30;;;1.20;;
16531;SDS011;66872;63.142;14.482;2023-05-17T01:12:10;1.10;;;1.00;;
16531;SDS011;66872;63.142;14.482;2023-05-17T01:17:59;1.10;;;1.00;;
16531;SDS011;66872;63.142;14.482;2023-05-17T01:20:44;1.20;;;1.10;;
16531;SDS011;66872;63.142;14.482;2023-05-17T01:26:13;1.70;;;1.20;;
16531;SDS011;66872;63.142;14.482;2023-05-17T01:28:48;1.50;;;1.27;;
16531;SDS011;66872;63.142;14.482;2023-05-17T01:31:17;2.23;;;1.20;;
16531;SDS011;66872;63.142;14.482;2023-05-17T01:33:44;1.33;;;1.00;;
16531;SDS011;66872;63.142;14.482;2023-05-17T01:36:10;0.90;;;0.90;;
16531;SDS011;66872;63.142;14.482;2023-05-17T01:38:36;1.10;;;1.00;;
16531;SDS011;66872;63.142;14.482;2023-05-17T01:41:35;1.57;;;1.30;;
16531;SDS011;66872;63.142;14.482;2023-05-17T01:44:11;1.57;;;1.00;;
16531;SDS011;66872;63.142;14.482;2023-05-17T01:46:48;0.90;;;0.90;;
16531;SDS011;66872;63.142;14.482;2023-05-17T01:49:23;1.20;;;1.10;;
16531;SDS011;66872;63.142;14.482;2023-05-17T01:51:57;2.20;;;1.03;;
16531;SDS011;66872;63.142;14.482;2023-05-17T01:54:50;0.80;;;0.80;;
16531;SDS011;66872;63.142;14.482;2023-05-17T01:57:23;1.13;;;1.03;;
16531;SDS011;66872;63.142;14.482;2023-05-17T01:59:53;1.37;;;1.10;;
16531;SDS011;66872;63.142;14.482;2023-05-17T02:02:23;1.13;;;1.00;;
16531;SDS011;66872;63.142;14.482;2023-05-17T02:04:48;1.40;;;1.13;;
16531;SDS011;66872;63.142;14.482;2023-05-17T02:07:15;1.30;;;1.00;;
16531;SDS011;66872;63.142;14.482;2023-05-17T02:09:41;0.97;;;0.97;;
16531;SDS011;66872;63.142;14.482;2023-05-17T02:12:06;1.07;;;0.90;;
16531;SDS011;66872;63.142;14.482;2023-05-17T02:14:32;1.23;;;1.10;;
16531;SDS011;66872;63.142;14.482;2023-05-17T02:16:58;0.83;;;0.80;;
16531;SDS011;66872;63.142;14.482;2023-05-17T02:19:24;1.33;;;1.03;;
16531;SDS011;66872;63.142;14.482;2023-05-17T02:21:49;2.73;;;1.27;;
16531;SDS011;66872;63.142;14.482;2023-05-17T02:24:15;1.23;;;1.10;;
16531;SDS011;66872;63.142;14.482;2023-05-17T02:26:41;1.53;;;1.10;;
16531;SDS011;66872;63.142;14.482;2023-05-17T02:29:07;1.10;;;0.97;;
16531;SDS011;66872;63.142;14.482;2023-05-17T02:31:35;1.00;;;0.90;;
16531;SDS011;66872;63.142;14.482;2023-05-17T02:34:00;1.83;;;1.20;;
16531;SDS011;66872;63.142;14.482;2023-05-17T02:36:26;0.87;;;0.80;;
16531;SDS011;66872;63.142;14.482;2023-05-17T02:38:52;1.80;;;1.07;;
16531;SDS011;66872;63.142;14.482;2023-05-17T02:41:18;0.97;;;0.87;;
16531;SDS011;66872;63.142;14.482;2023-05-17T02:43:43;1.33;;;1.13;;
16531;SDS011;66872;63.142;14.482;2023-05-17T02:46:09;1.17;;;0.90;;
16531;SDS011;66872;63.142;14.482;2023-05-17T02:48:35;1.50;;;1.00;;
16531;SDS011;66872;63.142;14.482;2023-05-17T02:51:01;0.93;;;0.80;;
16531;SDS011;66872;63.142;14.482;2023-05-17T02:53:26;1.47;;;1.00;;
16531;SDS011;66872;63.142;14.482;2023-05-17T02:55:52;1.13;;;0.90;;
16531;SDS011;66872;63.142;14.482;2023-05-17T02:58:21;1.10;;;0.90;;
16531;SDS011;66872;63.142;14.482;2023-05-17T03:00:50;1.40;;;1.00;;
16531;SDS011;66872;63.142;14.482;2023-05-17T03:03:16;1.07;;;0.97;;
16531;SDS011;66872;63.142;14.482;2023-05-17T03:05:41;0.80;;;0.80;;
16531;SDS011;66872;63.142;14.482;2023-05-17T03:08:07;1.00;;;0.90;;
16531;SDS011;66872;63.142;14.482;2023-05-17T03:10:33;1.30;;;1.20;;
16531;SDS011;66872;63.142;14.482;2023-05-17T03:12:59;0.90;;;0.90;;
16531;SDS011;66872;63.142;14.482;2023-05-17T03:15:25;1.20;;;1.00;;
16531;SDS011;66872;63.142;14.482;2023-05-17T03:17:53;0.90;;;0.90;;
16531;SDS011;66872;63.142;14.482;2023-05-17T03:20:20;1.10;;;1.00;;
16531;SDS011;66872;63.142;14.482;2023-05-17T03:22:45;0.90;;;0.90;;
16531;SDS011;66872;63.142;14.482;2023-05-17T03:25:11;1.10;;;1.00;;
16531;SDS011;66872;63.142;14.482;2023-05-17T03:27:37;1.27;;;1.00;;
16531;SDS011;66872;63.142;14.482;2023-05-17T03:30:02;1.07;;;0.87;;
16531;SDS011;66872;63.142;14.482;2023-05-17T03:32:28;1.67;;;1.00;;
16531;SDS011;66872;63.142;14.482;2023-05-17T03:34:54;1.67;;;1.10;;
16531;SDS011;66872;63.142;14.482;2023-05-17T03:37:20;1.00;;;0.93;;
16531;SDS011;66872;63.142;14.482;2023-05-17T03:39:45;0.90;;;0.77;;
16531;SDS011;66872;63.142;14.482;2023-05-17T03:42:11;0.60;;;0.60;;
16531;SDS011;66872;63.142;14.482;2023-05-17T03:44:37;0.83;;;0.83;;
16531;SDS011;66872;63.142;14.482;2023-05-17T03:47:02;1.27;;;0.93;;
16531;SDS011;66872;63.142;14.482;2023-05-17T03:49:28;1.00;;;0.87;;
16531;SDS011;66872;63.142;14.482;2023-05-17T03:51:54;0.83;;;0.80;;
16531;SDS011;66872;63.142;14.482;2023-05-17T03:54:19;1.00;;;0.80;;
16531;SDS011;66872;63.142;14.482;2023-05-17T03:56:45;0.70;;;0.70;;
16531;SDS011;66872;63.142;14.482;2023-05-17T03:59:11;1.77;;;1.00;;
16531;SDS011;66872;63.142;14.482;2023-05-17T04:01:37;0.73;;;0.73;;
16531;SDS011;66872;63.142;14.482;2023-05-17T04:04:03;1.00;;;0.90;;
16531;SDS011;66872;63.142;14.482;2023-05-17T04:06:29;1.00;;;0.90;;
16531;SDS011;66872;63.142;14.482;2023-05-17T04:08:55;0.80;;;0.80;;
16531;SDS011;66872;63.142;14.482;2023-05-17T04:11:23;0.70;;;0.70;;
16531;SDS011;66872;63.142;14.482;2023-05-17T04:13:51;1.03;;;0.83;;
16531;SDS011;66872;63.142;14.482;2023-05-17T04:16:17;1.20;;;1.00;;
16531;SDS011;66872;63.142;14.482;2023-05-17T04:18:43;0.70;;;0.70;;
16531;SDS011;66872;63.142;14.482;2023-05-17T04:21:09;1.83;;;1.10;;
16531;SDS011;66872;63.142;14.482;2023-05-17T04:23:35;0.90;;;0.80;;
16531;SDS011;66872;63.142;14.482;2023-05-17T04:26:01;0.77;;;0.77;;
16531;SDS011;66872;63.142;14.482;2023-05-17T04:28:28;0.87;;;0.87;;
16531;SDS011;66872;63.142;14.482;2023-05-17T04:30:55;1.40;;;1.00;;
16531;SDS011;66872;63.142;14.482;2023-05-17T04:33:21;0.87;;;0.80;;
16531;SDS011;66872;63.142;14.482;2023-05-17T04:35:48;0.80;;;0.80;;
16531;SDS011;66872;63.142;14.482;2023-05-17T04:38:15;1.20;;;1.00;;
16531;SDS011;66872;63.142;14.482;2023-05-17T04:40:41;0.80;;;0.77;;
16531;SDS011;66872;63.142;14.482;2023-05-17T04:43:06;1.03;;;0.90;;
16531;SDS011;66872;63.142;14.482;2023-05-17T04:45:32;0.77;;;0.73;;
16531;SDS011;66872;63.142;14.482;2023-05-17T04:47:58;1.37;;;0.97;;
16531;SDS011;66872;63.142;14.482;2023-05-17T04:50:24;0.77;;;0.77;;
16531;SDS011;66872;63.142;14.482;2023-05-17T04:52:50;0.70;;;0.70;;
16531;SDS011;66872;63.142;14.482;2023-05-17T04:55:16;1.43;;;0.90;;
16531;SDS011;66872;63.142;14.482;2023-05-17T04:57:42;0.80;;;0.80;;
16531;SDS011;66872;63.142;14.482;2023-05-17T05:00:08;0.80;;;0.80;;
16531;SDS011;66872;63.142;14.482;2023-05-17T05:02:34;1.03;;;0.80;;
16531;SDS011;66872;63.142;14.482;2023-05-17T05:05:00;1.57;;;1.07;;
16531;SDS011;66872;63.142;14.482;2023-05-17T05:07:27;1.03;;;0.83;;
16531;SDS011;66872;63.142;14.482;2023-05-17T05:09:53;1.47;;;0.80;;
16531;SDS011;66872;63.142;14.482;2023-05-17T05:12:18;0.90;;;0.80;;
16531;SDS011;66872;63.142;14.482;2023-05-17T05:14:44;0.70;;;0.70;;
16531;SDS011;66872;63.142;14.482;2023-05-17T05:17:10;1.67;;;0.90;;
16531;SDS011;66872;63.142;14.482;2023-05-17T05:19:35;0.73;;;0.73;;
16531;SDS011;66872;63.142;14.482;2023-05-17T05:22:01;1.00;;;0.80;;
16531;SDS011;66872;63.142;14.482;2023-05-17T05:24:27;1.00;;;0.90;;
16531;SDS011;66872;63.142;14.482;2023-05-17T05:26:52;1.00;;;0.90;;
16531;SDS011;66872;63.142;14.482;2023-05-17T05:29:18;0.60;;;0.60;;
16531;SDS011;66872;63.142;14.482;2023-05-17T05:31:44;0.90;;;0.70;;
16531;SDS011;66872;63.142;14.482;2023-05-17T05:34:10;0.80;;;0.77;;
16531;SDS011;66872;63.142;14.482;2023-05-17T05:36:36;1.10;;;0.73;;
16531;SDS011;66872;63.142;14.482;2023-05-17T05:39:01;0.90;;;0.70;;
16531;SDS011;66872;63.142;14.482;2023-05-17T05:41:27;0.80;;;0.70;;
16531;SDS011;66872;63.142;14.482;2023-05-17T05:43:53;0.70;;;0.70;;
16531;SDS011;66872;63.142;14.482;2023-05-17T05:46:19;1.00;;;0.90;;
16531;SDS011;66872;63.142;14.482;2023-05-17T05:48:44;1.03;;;0.70;;
16531;SDS011;66872;63.142;14.482;2023-05-17T05:51:10;0.67;;;0.67;;
16531;SDS011;66872;63.142;14.482;2023-05-17T05:53:36;0.63;;;0.53;;
16531;SDS011;66872;63.142;14.482;2023-05-17T05:56:03;0.70;;;0.70;;
16531;SDS011;66872;63.142;14.482;2023-05-17T05:58:29;0.70;;;0.70;;
16531;SDS011;66872;63.142;14.482;2023-05-17T06:00:55;0.80;;;0.80;;
16531;SDS011;66872;63.142;14.482;2023-05-17T06:03:21;0.90;;;0.90;;
16531;SDS011;66872;63.142;14.482;2023-05-17T06:05:47;0.60;;;0.60;;
16531;SDS011;66872;63.142;14.482;2023-05-17T06:08:13;0.80;;;0.80;;
16531;SDS011;66872;63.142;14.482;2023-05-17T06:10:39;0.77;;;0.70;;
16531;SDS011;66872;63.142;14.482;2023-05-17T06:13:05;1.37;;;1.03;;
16531;SDS011;66872;63.142;14.482;2023-05-17T06:15:30;0.70;;;0.60;;
16531;SDS011;66872;63.142;14.482;2023-05-17T06:17:56;0.70;;;0.70;;
16531;SDS011;66872;63.142;14.482;2023-05-17T06:20:22;0.90;;;0.70;;
16531;SDS011;66872;63.142;14.482;2023-05-17T06:22:47;0.83;;;0.70;;
16531;SDS011;66872;63.142;14.482;2023-05-17T06:25:13;1.47;;;0.70;;
16531;SDS011;66872;63.142;14.482;2023-05-17T06:27:39;0.80;;;0.80;;
16531;SDS011;66872;63.142;14.482;2023-05-17T06:30:05;0.70;;;0.50;;
16531;SDS011;66872;63.142;14.482;2023-05-17T06:32:31;0.83;;;0.80;;
16531;SDS011;66872;63.142;14.482;2023-05-17T06:34:57;0.90;;;0.70;;
16531;SDS011;66872;63.142;14.482;2023-05-17T06:37:23;1.03;;;0.60;;
16531;SDS011;66872;63.142;14.482;2023-05-17T06:39:52;0.73;;;0.67;;
16531;SDS011;66872;63.142;14.482;2023-05-17T06:42:25;0.50;;;0.50;;
16531;SDS011;66872;63.142;14.482;2023-05-17T06:44:51;0.70;;;0.70;;
16531;SDS011;66872;63.142;14.482;2023-05-17T06:47:16;0.83;;;0.70;;
16531;SDS011;66872;63.142;14.482;2023-05-17T06:49:42;0.87;;;0.80;;
16531;SDS011;66872;63.142;14.482;2023-05-17T06:52:08;0.83;;;0.83;;
16531;SDS011;66872;63.142;14.482;2023-05-17T06:54:33;0.77;;;0.70;;
16531;SDS011;66872;63.142;14.482;2023-05-17T06:57:03;0.50;;;0.50;;
16531;SDS011;66872;63.142;14.482;2023-05-17T06:59:28;0.87;;;0.60;;
16531;SDS011;66872;63.142;14.482;2023-05-17T07:01:54;1.07;;;0.80;;
16531;SDS011;66872;63.142;14.482;2023-05-17T07:04:20;0.47;;;0.47;;
16531;SDS011;66872;63.142;14.482;2023-05-17T07:06:46;0.60;;;0.60;;
16531;SDS011;66872;63.142;14.482;2023-05-17T07:09:12;1.00;;;0.60;;
16531;SDS011;66872;63.142;14.482;2023-05-17T07:11:38;0.70;;;0.70;;
16531;SDS011;66872;63.142;14.482;2023-05-17T07:14:03;0.67;;;0.63;;
16531;SDS011;66872;63.142;14.482;2023-05-17T07:16:29;0.63;;;0.50;;
16531;SDS011;66872;63.142;14.482;2023-05-17T07:18:55;0.80;;;0.80;;
16531;SDS011;66872;63.142;14.482;2023-05-17T07:21:21;0.77;;;0.60;;
16531;SDS011;66872;63.142;14.482;2023-05-17T07:23:48;0.50;;;0.50;;
16531;SDS011;66872;63.142;14.482;2023-05-17T07:26:14;0.67;;;0.67;;
16531;SDS011;66872;63.142;14.482;2023-05-17T07:28:42;0.60;;;0.50;;
16531;SDS011;66872;63.142;14.482;2023-05-17T07:31:08;1.00;;;0.70;;
16531;SDS011;66872;63.142;14.482;2023-05-17T07:33:34;0.60;;;0.60;;
16531;SDS011;66872;63.142;14.482;2023-05-17T07:36:01;0.63;;;0.60;;
16531;SDS011;66872;63.142;14.482;2023-05-17T07:38:26;0.50;;;0.50;;
16531;SDS011;66872;63.142;14.482;2023-05-17T07:40:52;0.40;;;0.40;;
16531;SDS011;66872;63.142;14.482;2023-05-17T07:43:17;0.57;;;0.53;;
16531;SDS011;66872;63.142;14.482;2023-05-17T07:45:43;0.60;;;0.60;;
16531;SDS011;66872;63.142;14.482;2023-05-17T07:48:09;0.70;;;0.70;;
16531;SDS011;66872;63.142;14.482;2023-05-17T07:50:35;0.53;;;0.53;;
16531;SDS011;66872;63.142;14.482;2023-05-17T07:53:00;0.67;;;0.60;;
16531;SDS011;66872;63.142;14.482;2023-05-17T07:55:26;0.70;;;0.70;;
16531;SDS011;66872;63.142;14.482;2023-05-17T07:57:52;0.87;;;0.77;;
16531;SDS011;66872;63.142;14.482;2023-05-17T08:00:17;0.77;;;0.73;;
16531;SDS011;66872;63.142;14.482;2023-05-17T08:02:44;0.57;;;0.50;;
16531;SDS011;66872;63.142;14.482;2023-05-17T08:05:10;0.60;;;0.50;;
16531;SDS011;66872;63.142;14.482;2023-05-17T08:07:36;0.70;;;0.70;;
16531;SDS011;66872;63.142;14.482;2023-05-17T08:10:01;0.70;;;0.50;;
16531;SDS011;66872;63.142;14.482;2023-05-17T08:12:27;0.70;;;0.70;;
16531;SDS011;66872;63.142;14.482;2023-05-17T08:14:53;0.70;;;0.70;;
16531;SDS011;66872;63.142;14.482;2023-05-17T08:17:18;0.63;;;0.63;;
16531;SDS011;66872;63.142;14.482;2023-05-17T08:19:44;1.10;;;0.83;;
16531;SDS011;66872;63.142;14.482;2023-05-17T08:22:10;0.87;;;0.70;;
16531;SDS011;66872;63.142;14.482;2023-05-17T08:24:35;0.60;;;0.60;;
16531;SDS011;66872;63.142;14.482;2023-05-17T08:27:01;1.37;;;0.60;;
16531;SDS011;66872;63.142;14.482;2023-05-17T08:29:27;0.40;;;0.40;;
16531;SDS011;66872;63.142;14.482;2023-05-17T08:31:53;0.63;;;0.63;;
16531;SDS011;66872;63.142;14.482;2023-05-17T08:34:19;0.37;;;0.37;;
16531;SDS011;66872;63.142;14.482;2023-05-17T08:36:44;0.47;;;0.47;;
16531;SDS011;66872;63.142;14.482;2023-05-17T08:39:11;0.50;;;0.50;;
16531;SDS011;66872;63.142;14.482;2023-05-17T08:41:37;0.60;;;0.60;;
16531;SDS011;66872;63.142;14.482;2023-05-17T08:44:03;1.00;;;0.60;;
16531;SDS011;66872;63.142;14.482;2023-05-17T08:46:31;0.60;;;0.60;;
16531;SDS011;66872;63.142;14.482;2023-05-17T08:48:57;0.63;;;0.63;;
16531;SDS011;66872;63.142;14.482;2023-05-17T08:51:26;0.70;;;0.60;;
16531;SDS011;66872;63.142;14.482;2023-05-17T08:53:53;0.50;;;0.50;;
16531;SDS011;66872;63.142;14.482;2023-05-17T08:56:19;0.47;;;0.40;;
16531;SDS011;66872;63.142;14.482;2023-05-17T08:58:47;0.68;;;0.68;;
16531;SDS011;66872;63.142;14.482;2023-05-17T09:01:17;0.40;;;0.40;;
16531;SDS011;66872;63.142;14.482;2023-05-17T09:03:45;0.50;;;0.50;;
16531;SDS011;66872;63.142;14.482;2023-05-17T09:06:12;0.57;;;0.57;;
16531;SDS011;66872;63.142;14.482;2023-05-17T09:08:39;0.30;;;0.30;;
16531;SDS011;66872;63.142;14.482;2023-05-17T09:11:06;0.40;;;0.40;;
16531;SDS011;66872;63.142;14.482;2023-05-17T09:13:32;0.40;;;0.40;;
16531;SDS011;66872;63.142;14.482;2023-05-17T09:15:58;0.57;;;0.57;;
16531;SDS011;66872;63.142;14.482;2023-05-17T09:18:30;0.55;;;0.55;;
16531;SDS011;66872;63.142;14.482;2023-05-17T09:20:56;0.60;;;0.60;;
16531;SDS011;66872;63.142;14.482;2023-05-17T09:23:30;0.50;;;0.50;;
16531;SDS011;66872;63.142;14.482;2023-05-17T09:26:05;0.40;;;0.40;;
16531;SDS011;66872;63.142;14.482;2023-05-17T09:28:40;0.57;;;0.57;;
16531;SDS011;66872;63.142;14.482;2023-05-17T09:31:06;0.60;;;0.60;;
16531;SDS011;66872;63.142;14.482;2023-05-17T09:33:33;0.57;;;0.57;;
16531;SDS011;66872;63.142;14.482;2023-05-17T09:36:10;0.33;;;0.33;;
16531;SDS011;66872;63.142;14.482;2023-05-17T09:38:51;0.50;;;0.50;;
16531;SDS011;66872;63.142;14.482;2023-05-17T09:41:18;0.60;;;0.47;;
16531;SDS011;66872;63.142;14.482;2023-05-17T09:43:44;0.40;;;0.40;;
16531;SDS011;66872;63.142;14.482;2023-05-17T09:46:10;0.63;;;0.63;;
16531;SDS011;66872;63.142;14.482;2023-05-17T09:48:36;0.50;;;0.40;;
16531;SDS011;66872;63.142;14.482;2023-05-17T09:51:02;0.60;;;0.60;;
16531;SDS011;66872;63.142;14.482;2023-05-17T09:53:31;0.37;;;0.37;;
16531;SDS011;66872;63.142;14.482;2023-05-17T09:56:04;0.75;;;0.50;;
16531;SDS011;66872;63.142;14.482;2023-05-17T09:58:31;0.43;;;0.43;;
16531;SDS011;66872;63.142;14.482;2023-05-17T10:00:58;0.40;;;0.40;;
16531;SDS011;66872;63.142;14.482;2023-05-17T10:03:25;0.30;;;0.30;;
16531;SDS011;66872;63.142;14.482;2023-05-17T10:05:54;0.53;;;0.53;;
16531;SDS011;66872;63.142;14.482;2023-05-17T10:08:22;0.33;;;0.33;;
16531;SDS011;66872;63.142;14.482;2023-05-17T10:10:49;0.60;;;0.60;;
16531;SDS011;66872;63.142;14.482;2023-05-17T10:13:19;0.60;;;0.60;;
16531;SDS011;66872;63.142;14.482;2023-05-17T10:15:48;0.77;;;0.50;;
16531;SDS011;66872;63.142;14.482;2023-05-17T10:18:15;0.43;;;0.43;;
16531;SDS011;66872;63.142;14.482;2023-05-17T10:20:42;0.30;;;0.30;;
16531;SDS011;66872;63.142;14.482;2023-05-17T10:23:08;0.40;;;0.40;;
16531;SDS011;66872;63.142;14.482;2023-05-17T10:25:35;0.40;;;0.40;;
16531;SDS011;66872;63.142;14.482;2023-05-17T10:28:01;0.38;;;0.38;;
16531;SDS011;66872;63.142;14.482;2023-05-17T10:30:31;0.30;;;0.30;;
16531;SDS011;66872;63.142;14.482;2023-05-17T10:32:58;0.40;;;0.40;;
16531;SDS011;66872;63.142;14.482;2023-05-17T10:35:25;0.40;;;0.40;;
16531;SDS011;66872;63.142;14.482;2023-05-17T10:37:52;0.43;;;0.43;;
16531;SDS011;66872;63.142;14.482;2023-05-17T10:40:18;0.23;;;0.23;;
16531;SDS011;66872;63.142;14.482;2023-05-17T10:42:49;0.40;;;0.40;;
16531;SDS011;66872;63.142;14.482;2023-05-17T10:45:19;0.40;;;0.40;;
16531;SDS011;66872;63.142;14.482;2023-05-17T10:47:46;0.50;;;0.50;;
16531;SDS011;66872;63.142;14.482;2023-05-17T10:50:14;0.30;;;0.30;;
16531;SDS011;66872;63.142;14.482;2023-05-17T10:52:50;0.27;;;0.27;;
16531;SDS011;66872;63.142;14.482;2023-05-17T10:55:22;0.60;;;0.60;;
16531;SDS011;66872;63.142;14.482;2023-05-17T11:00:41;0.50;;;0.50;;
16531;SDS011;66872;63.142;14.482;2023-05-17T11:03:33;0.33;;;0.30;;
16531;SDS011;66872;63.142;14.482;2023-05-17T11:08:35;0.60;;;0.60;;
16531;SDS011;66872;63.142;14.482;2023-05-17T11:11:11;0.30;;;0.30;;
16531;SDS011;66872;63.142;14.482;2023-05-17T11:13:44;0.23;;;0.23;;
16531;SDS011;66872;63.142;14.482;2023-05-17T11:16:12;0.23;;;0.23;;
16531;SDS011;66872;63.142;14.482;2023-05-17T11:18:50;0.57;;;0.57;;
16531;SDS011;66872;63.142;14.482;2023-05-17T11:21:17;0.40;;;0.40;;
16531;SDS011;66872;63.142;14.482;2023-05-17T11:23:44;0.30;;;0.30;;
16531;SDS011;66872;63.142;14.482;2023-05-17T11:26:53;0.20;;;0.20;;
16531;SDS011;66872;63.142;14.482;2023-05-17T11:29:05;0.50;;;0.50;;
16531;SDS011;66872;63.142;14.482;2023-05-17T11:31:34;0.40;;;0.40;;
16531;SDS011;66872;63.142;14.482;2023-05-17T11:34:04;0.37;;;0.37;;
16531;SDS011;66872;63.142;14.482;2023-05-17T11:36:30;0.57;;;0.40;;
16531;SDS011;66872;63.142;14.482;2023-05-17T11:39:13;0.40;;;0.40;;
16531;SDS011;66872;63.142;14.482;2023-05-17T11:41:46;0.40;;;0.40;;
16531;SDS011;66872;63.142;14.482;2023-05-17T11:47:01;0.50;;;0.50;;
16531;SDS011;66872;63.142;14.482;2023-05-17T11:49:29;0.50;;;0.50;;
16531;SDS011;66872;63.142;14.482;2023-05-17T11:51:56;0.50;;;0.50;;
16531;SDS011;66872;63.142;14.482;2023-05-17T11:54:25;0.40;;;0.40;;
16531;SDS011;66872;63.142;14.482;2023-05-17T11:56:52;0.50;;;0.50;;
16531;SDS011;66872;63.142;14.482;2023-05-17T11:59:19;0.33;;;0.33;;
16531;SDS011;66872;63.142;14.482;2023-05-17T12:01:45;0.40;;;0.30;;
16531;SDS011;66872;63.142;14.482;2023-05-17T12:04:12;0.30;;;0.30;;
16531;SDS011;66872;63.142;14.482;2023-05-17T12:06:38;0.40;;;0.40;;
16531;SDS011;66872;63.142;14.482;2023-05-17T12:09:04;0.40;;;0.40;;
16531;SDS011;66872;63.142;14.482;2023-05-17T12:11:34;0.37;;;0.37;;
16531;SDS011;66872;63.142;14.482;2023-05-17T12:14:01;0.30;;;0.30;;
16531;SDS011;66872;63.142;14.482;2023-05-17T12:16:27;0.50;;;0.50;;
16531;SDS011;66872;63.142;14.482;2023-05-17T12:18:54;0.30;;;0.30;;
16531;SDS011;66872;63.142;14.482;2023-05-17T12:21:22;0.40;;;0.40;;
16531;SDS011;66872;63.142;14.482;2023-05-17T12:23:49;0.50;;;0.50;;
16531;SDS011;66872;63.142;14.482;2023-05-17T12:26:16;0.30;;;0.30;;
16531;SDS011;66872;63.142;14.482;2023-05-17T12:28:58;0.40;;;0.40;;
16531;SDS011;66872;63.142;14.482;2023-05-17T12:31:25;0.37;;;0.37;;
16531;SDS011;66872;63.142;14.482;2023-05-17T12:33:59;0.30;;;0.30;;
16531;SDS011;66872;63.142;14.482;2023-05-17T12:36:28;0.23;;;0.23;;
16531;SDS011;66872;63.142;14.482;2023-05-17T12:38:55;0.30;;;0.30;;
16531;SDS011;66872;63.142;14.482;2023-05-17T12:41:21;0.40;;;0.40;;
16531;SDS011;66872;63.142;14.482;2023-05-17T12:43:50;0.30;;;0.30;;
16531;SDS011;66872;63.142;14.482;2023-05-17T12:46:17;0.40;;;0.40;;
16531;SDS011;66872;63.142;14.482;2023-05-17T12:48:44;0.43;;;0.43;;
16531;SDS011;66872;63.142;14.482;2023-05-17T12:51:20;0.40;;;0.40;;
16531;SDS011;66872;63.142;14.482;2023-05-17T12:53:51;0.50;;;0.30;;
16531;SDS011;66872;63.142;14.482;2023-05-17T12:56:27;0.30;;;0.30;;
16531;SDS011;66872;63.142;14.482;2023-05-17T12:59:03;0.37;;;0.30;;
16531;SDS011;66872;63.142;14.482;2023-05-17T13:04:08;0.30;;;0.30;;
16531;SDS011;66872;63.142;14.482;2023-05-17T13:09:14;0.30;;;0.30;;
16531;SDS011;66872;63.142;14.482;2023-05-17T13:11:42;0.40;;;0.40;;
16531;SDS011;66872;63.142;14.482;2023-05-17T13:14:34;0.20;;;0.20;;
16531;SDS011;66872;63.142;14.482;2023-05-17T13:17:03;0.40;;;0.40;;
16531;SDS011;66872;63.142;14.482;2023-05-17T13:19:30;0.30;;;0.30;;
16531;SDS011;66872;63.142;14.482;2023-05-17T13:21:56;0.50;;;0.50;;
16531;SDS011;66872;63.142;14.482;2023-05-17T13:24:22;0.30;;;0.30;;
16531;SDS011;66872;63.142;14.482;2023-05-17T13:26:47;0.30;;;0.30;;
16531;SDS011;66872;63.142;14.482;2023-05-17T13:29:13;0.20;;;0.20;;
16531;SDS011;66872;63.142;14.482;2023-05-17T13:31:38;0.30;;;0.30;;
16531;SDS011;66872;63.142;14.482;2023-05-17T13:34:06;0.40;;;0.40;;
16531;SDS011;66872;63.142;14.482;2023-05-17T13:36:32;0.30;;;0.30;;
16531;SDS011;66872;63.142;14.482;2023-05-17T13:38:58;1.13;;;0.40;;
16531;SDS011;66872;63.142;14.482;2023-05-17T13:41:25;0.30;;;0.30;;
16531;SDS011;66872;63.142;14.482;2023-05-17T13:43:51;0.30;;;0.30;;
16531;SDS011;66872;63.142;14.482;2023-05-17T13:46:17;0.27;;;0.27;;
16531;SDS011;66872;63.142;14.482;2023-05-17T13:48:43;0.30;;;0.30;;
16531;SDS011;66872;63.142;14.482;2023-05-17T13:51:09;0.33;;;0.33;;
16531;SDS011;66872;63.142;14.482;2023-05-17T13:53:34;0.30;;;0.30;;
16531;SDS011;66872;63.142;14.482;2023-05-17T13:56:02;0.33;;;0.33;;
16531;SDS011;66872;63.142;14.482;2023-05-17T13:58:28;0.20;;;0.20;;
16531;SDS011;66872;63.142;14.482;2023-05-17T14:00:54;0.33;;;0.33;;
16531;SDS011;66872;63.142;14.482;2023-05-17T14:03:20;0.20;;;0.20;;
16531;SDS011;66872;63.142;14.482;2023-05-17T14:05:46;0.33;;;0.33;;
16531;SDS011;66872;63.142;14.482;2023-05-17T14:08:14;0.40;;;0.40;;
16531;SDS011;66872;63.142;14.482;2023-05-17T14:10:41;0.20;;;0.20;;
16531;SDS011;66872;63.142;14.482;2023-05-17T14:13:06;0.73;;;0.40;;
16531;SDS011;66872;63.142;14.482;2023-05-17T14:15:32;0.40;;;0.40;;
16531;SDS011;66872;63.142;14.482;2023-05-17T14:18:02;0.27;;;0.27;;
16531;SDS011;66872;63.142;14.482;2023-05-17T14:20:28;0.20;;;0.20;;
16531;SDS011;66872;63.142;14.482;2023-05-17T14:22:54;0.30;;;0.30;;
16531;SDS011;66872;63.142;14.482;2023-05-17T14:25:20;0.40;;;0.40;;
16531;SDS011;66872;63.142;14.482;2023-05-17T14:27:46;0.50;;;0.50;;
16531;SDS011;66872;63.142;14.482;2023-05-17T14:30:12;0.80;;;0.30;;
16531;SDS011;66872;63.142;14.482;2023-05-17T14:32:38;0.30;;;0.30;;
16531;SDS011;66872;63.142;14.482;2023-05-17T14:35:05;0.27;;;0.27;;
16531;SDS011;66872;63.142;14.482;2023-05-17T14:37:31;0.30;;;0.30;;
16531;SDS011;66872;63.142;14.482;2023-05-17T14:39:57;0.30;;;0.30;;
16531;SDS011;66872;63.142;14.482;2023-05-17T14:42:24;0.23;;;0.23;;
16531;SDS011;66872;63.142;14.482;2023-05-17T14:44:49;0.27;;;0.27;;
16531;SDS011;66872;63.142;14.482;2023-05-17T14:47:15;0.10;;;0.10;;
16531;SDS011;66872;63.142;14.482;2023-05-17T14:49:41;0.27;;;0.27;;
16531;SDS011;66872;63.142;14.482;2023-05-17T14:52:07;0.33;;;0.30;;
16531;SDS011;66872;63.142;14.482;2023-05-17T14:54:34;0.40;;;0.40;;